createdAt,value
2019-04-25T00:01:21.595Z,12.40
2019-04-25T00:03:15.531Z,12.40
2019-04-25T00:05:11.332Z,12.20
2019-04-25T00:07:04.747Z,12.30
2019-04-25T00:08:57.740Z,12.30
2019-04-25T00:10:51.447Z,12.40
2019-04-25T00:12:45.681Z,12.50
2019-04-25T00:14:39.633Z,12.50
2019-04-25T00:16:35.220Z,12.30
2019-04-25T00:18:28.707Z,12.20
2019-04-25T00:20:21.499Z,12.10
2019-04-25T00:22:15.912Z,12.10
2019-04-25T00:24:28.913Z,12.20
2019-04-25T00:26:31.103Z,12.20
2019-04-25T00:28:24.575Z,12.20
2019-04-25T00:30:17.067Z,12.30
2019-04-25T00:32:11.617Z,12.30
2019-04-25T00:34:05.576Z,12.30
2019-04-25T00:35:58.575Z,12.30
2019-04-25T00:37:52.509Z,12.40
2019-04-25T00:39:47.104Z,12.40
2019-04-25T00:41:41.731Z,12.50
2019-04-25T00:43:35.700Z,12.60
2019-04-25T00:45:31.405Z,12.60
2019-04-25T00:47:25.193Z,12.50
2019-04-25T00:49:18.208Z,12.50
2019-04-25T00:51:12.138Z,12.60
2019-04-25T00:53:04.819Z,12.50
2019-04-25T00:54:57.631Z,12.50
2019-04-25T00:56:51.045Z,12.50
2019-04-25T00:58:46.768Z,12.60
2019-04-25T01:00:48.997Z,12.60
2019-04-25T01:02:44.179Z,12.60
2019-04-25T01:04:37.095Z,12.50
2019-04-25T01:06:31.917Z,12.50
2019-04-25T01:08:25.469Z,12.40
2019-04-25T01:10:19.047Z,12.40
2019-04-25T01:12:12.966Z,12.40
2019-04-25T01:14:06.369Z,12.40
2019-04-25T01:15:59.372Z,12.40
2019-04-25T01:17:53.469Z,12.40
2019-04-25T01:19:46.789Z,12.40
2019-04-25T01:21:40.313Z,12.40
2019-04-25T01:23:33.717Z,12.50
2019-04-25T01:25:38.365Z,12.40
2019-04-25T01:27:21.434Z,12.30
2019-04-25T01:29:15.096Z,12.30
2019-04-25T01:31:09.867Z,12.20
2019-04-25T01:33:03.509Z,12.30
2019-04-25T01:35:10.914Z,12.30
2019-04-25T01:37:08.609Z,12.30
2019-04-25T01:39:12.007Z,12.30
2019-04-25T01:41:14.473Z,12.30
2019-04-25T01:43:09.055Z,12.30
2019-04-25T01:45:01.911Z,12.30
2019-04-25T01:46:55.587Z,12.30
2019-04-25T01:48:50.117Z,12.20
2019-04-25T01:50:43.852Z,12.10
2019-04-25T01:52:37.311Z,12.30
2019-04-25T01:54:30.328Z,12.30
2019-04-25T01:56:24.764Z,12.30
2019-04-25T01:58:19.189Z,12.20
2019-04-25T02:00:14.320Z,12.10
2019-04-25T02:02:09.087Z,12.10
2019-04-25T02:04:03.524Z,12.10
2019-04-25T02:05:57.319Z,12.10
2019-04-25T02:07:51.448Z,12.10
2019-04-25T02:09:44.938Z,12.10
2019-04-25T02:11:43.841Z,12.00
2019-04-25T02:13:38.505Z,11.90
2019-04-25T02:15:33.545Z,11.90
2019-04-25T02:17:27.036Z,12.00
2019-04-25T02:19:20.384Z,12.00
2019-04-25T02:21:13.817Z,12.00
2019-04-25T02:23:07.120Z,12.00
2019-04-25T02:25:00.425Z,11.80
2019-04-25T02:26:55.244Z,11.80
2019-04-25T02:28:48.625Z,11.80
2019-04-25T02:30:41.418Z,11.80
2019-04-25T02:32:37.160Z,11.80
2019-04-25T02:34:30.216Z,11.80
2019-04-25T02:36:24.653Z,11.90
2019-04-25T02:38:18.223Z,11.80
2019-04-25T02:40:14.157Z,11.80
2019-04-25T02:42:08.648Z,11.80
2019-04-25T02:44:06.000Z,11.80
2019-04-25T02:46:00.576Z,11.80
2019-04-25T02:48:10.259Z,11.90
2019-04-25T02:50:20.497Z,11.90
2019-04-25T02:52:17.751Z,11.90
2019-04-25T02:54:09.593Z,11.80
2019-04-25T02:56:06.234Z,11.80
2019-04-25T02:57:58.294Z,11.80
2019-04-25T02:59:51.880Z,11.80
2019-04-25T03:01:45.167Z,11.70
2019-04-25T03:03:38.411Z,11.70
2019-04-25T03:05:31.883Z,11.70
2019-04-25T03:07:26.587Z,11.80
2019-04-25T03:09:19.407Z,11.70
2019-04-25T03:11:15.002Z,11.70
2019-04-25T03:13:11.666Z,11.70
2019-04-25T03:15:02.785Z,11.70
2019-04-25T03:16:58.559Z,11.70
2019-04-25T03:18:54.377Z,11.70
2019-04-25T03:21:01.266Z,11.70
2019-04-25T03:22:55.089Z,11.70
2019-04-25T03:24:48.127Z,11.70
2019-04-25T03:26:40.945Z,11.60
2019-04-25T03:28:34.682Z,11.60
2019-04-25T03:30:28.074Z,11.70
2019-04-25T03:32:21.094Z,11.70
2019-04-25T03:34:19.231Z,11.70
2019-04-25T03:36:09.337Z,11.70
2019-04-25T03:38:04.276Z,11.60
2019-04-25T03:39:57.145Z,11.70
2019-04-25T03:41:51.388Z,11.80
2019-04-25T03:43:45.048Z,11.80
2019-04-25T03:45:38.256Z,11.70
2019-04-25T03:47:33.193Z,11.70
2019-04-25T03:49:26.920Z,11.70
2019-04-25T03:51:19.871Z,11.70
2019-04-25T03:53:13.955Z,11.60
2019-04-25T03:55:08.669Z,11.60
2019-04-25T03:57:06.158Z,11.60
2019-04-25T03:58:58.079Z,11.50
2019-04-25T04:00:51.369Z,11.60
2019-04-25T04:02:44.832Z,11.60
2019-04-25T04:04:38.212Z,11.60
2019-04-25T04:06:30.637Z,11.60
2019-04-25T04:08:24.313Z,11.70
2019-04-25T04:10:17.836Z,11.70
2019-04-25T04:12:12.373Z,11.70
2019-04-25T04:14:06.824Z,11.70
2019-04-25T04:16:03.313Z,11.80
2019-04-25T04:18:05.968Z,11.70
2019-04-25T04:20:00.691Z,11.70
2019-04-25T04:21:58.089Z,11.70
2019-04-25T04:23:54.104Z,11.80
2019-04-25T04:25:48.347Z,11.70
2019-04-25T04:27:41.429Z,11.70
2019-04-25T04:29:34.810Z,11.70
2019-04-25T04:31:28.108Z,11.80
2019-04-25T04:33:29.515Z,11.80
2019-04-25T04:35:16.161Z,11.80
2019-04-25T04:37:11.148Z,11.70
2019-04-25T04:39:05.828Z,11.70
2019-04-25T04:40:59.133Z,11.80
2019-04-25T04:42:53.305Z,11.80
2019-04-25T04:44:47.963Z,11.90
2019-04-25T04:46:40.894Z,11.90
2019-04-25T04:48:34.366Z,11.90
2019-04-25T04:50:28.870Z,11.90
2019-04-25T04:52:24.056Z,11.80
2019-04-25T04:54:17.146Z,11.70
2019-04-25T04:56:11.349Z,11.80
2019-04-25T04:58:04.397Z,11.80
2019-04-25T04:59:57.225Z,11.90
2019-04-25T05:02:03.734Z,11.90
2019-04-25T05:04:08.698Z,11.90
2019-04-25T05:06:16.193Z,12.00
2019-04-25T05:08:17.328Z,12.00
2019-04-25T05:10:11.325Z,12.10
2019-04-25T05:12:05.880Z,12.10
2019-04-25T05:13:59.232Z,12.10
2019-04-25T05:15:53.249Z,12.20
2019-04-25T05:17:47.676Z,12.20
2019-04-25T05:19:40.763Z,12.20
2019-04-25T05:21:33.668Z,12.30
2019-04-25T05:23:27.098Z,12.30
2019-04-25T05:25:20.668Z,12.40
2019-04-25T05:27:16.662Z,12.50
2019-04-25T05:29:09.108Z,12.60
2019-04-25T05:31:09.777Z,12.60
2019-04-25T05:33:03.949Z,12.60
2019-04-25T05:34:57.407Z,12.70
2019-04-25T05:36:49.744Z,12.70
2019-04-25T05:38:43.605Z,12.60
2019-04-25T05:40:39.351Z,12.70
2019-04-25T05:42:48.886Z,12.90
2019-04-25T05:44:41.949Z,12.90
2019-04-25T05:46:34.847Z,13.00
2019-04-25T05:48:28.020Z,13.10
2019-04-25T05:50:22.524Z,13.10
2019-04-25T05:52:16.117Z,13.20
2019-04-25T05:54:09.568Z,13.30
2019-04-25T05:56:04.030Z,13.40
2019-04-25T05:57:57.487Z,13.40
2019-04-25T05:59:50.020Z,13.50
2019-04-25T06:01:43.523Z,13.50
2019-04-25T06:03:36.371Z,13.70
2019-04-25T06:05:29.731Z,13.80
2019-04-25T06:07:22.176Z,13.90
2019-04-25T06:09:20.149Z,14.00
2019-04-25T06:11:14.671Z,14.00
2019-04-25T06:13:15.365Z,14.10
2019-04-25T06:15:08.268Z,14.20
2019-04-25T06:17:03.476Z,14.20
2019-04-25T06:19:13.597Z,14.30
2019-04-25T06:20:58.640Z,14.40
2019-04-25T06:22:53.581Z,14.60
2019-04-25T06:24:48.691Z,14.70
2019-04-25T06:26:44.927Z,14.70
2019-04-25T06:28:49.446Z,14.90
2019-04-25T06:30:32.838Z,15.10
2019-04-25T06:32:38.746Z,15.30
2019-04-25T06:34:34.670Z,15.40
2019-04-25T06:36:27.125Z,15.40
2019-04-25T06:38:20.516Z,15.40
2019-04-25T06:40:15.385Z,15.80
2019-04-25T06:42:08.477Z,15.80
2019-04-25T06:44:04.043Z,15.80
2019-04-25T06:46:15.936Z,15.80
2019-04-25T06:48:14.042Z,15.90
2019-04-25T06:50:07.707Z,16.00
2019-04-25T06:52:01.019Z,16.10
2019-04-25T06:53:54.312Z,16.10
2019-04-25T06:55:46.687Z,16.20
2019-04-25T06:57:39.554Z,16.30
2019-04-25T06:59:34.344Z,16.40
2019-04-25T07:01:28.014Z,16.50
2019-04-25T07:03:22.823Z,16.60
2019-04-25T07:05:26.714Z,16.60
2019-04-25T07:07:14.948Z,16.70
2019-04-25T07:09:10.789Z,16.90
2019-04-25T07:11:04.271Z,17.00
2019-04-25T07:12:56.616Z,17.30
2019-04-25T07:14:49.780Z,17.30
2019-04-25T07:16:43.444Z,17.40
2019-04-25T07:18:37.469Z,17.60
2019-04-25T07:20:30.541Z,17.60
2019-04-25T07:22:23.926Z,17.60
2019-04-25T07:24:18.245Z,17.60
2019-04-25T07:26:13.554Z,17.80
2019-04-25T07:28:08.475Z,17.90
2019-04-25T07:30:09.131Z,17.80
2019-04-25T07:32:03.896Z,17.80
2019-04-25T07:34:03.600Z,17.80
2019-04-25T07:35:57.153Z,17.90
2019-04-25T07:37:50.770Z,17.90
2019-04-25T07:39:44.258Z,18.00
2019-04-25T07:41:38.764Z,17.90
2019-04-25T07:43:33.915Z,18.00
2019-04-25T07:45:27.154Z,18.10
2019-04-25T07:47:20.583Z,18.10
2019-04-25T07:49:13.906Z,18.20
2019-04-25T07:51:08.333Z,18.10
2019-04-25T07:53:00.605Z,18.10
2019-04-25T07:54:53.910Z,18.30
2019-04-25T07:56:47.045Z,18.40
2019-04-25T07:58:49.599Z,18.70
2019-04-25T08:00:36.117Z,18.80
2019-04-25T08:02:29.743Z,19.00
2019-04-25T08:04:23.589Z,18.80
2019-04-25T08:06:17.024Z,19.00
2019-04-25T08:08:11.178Z,19.30
2019-04-25T08:10:07.663Z,19.60
2019-04-25T08:12:00.999Z,19.70
2019-04-25T08:14:10.924Z,19.60
2019-04-25T08:16:06.018Z,19.80
2019-04-25T08:18:10.067Z,19.60
2019-04-25T08:20:05.680Z,19.80
2019-04-25T08:21:58.943Z,20.20
2019-04-25T08:23:53.352Z,20.10
2019-04-25T08:25:46.851Z,20.50
2019-04-25T08:27:40.716Z,20.60
2019-04-25T08:29:36.328Z,21.00
2019-04-25T08:31:28.660Z,21.20
2019-04-25T08:33:21.616Z,21.10
2019-04-25T08:35:16.003Z,20.80
2019-04-25T08:37:18.168Z,20.80
2019-04-25T08:39:05.373Z,20.60
2019-04-25T08:40:59.160Z,20.90
2019-04-25T08:42:53.819Z,21.10
2019-04-25T08:44:47.102Z,21.30
2019-04-25T08:46:41.544Z,21.60
2019-04-25T08:48:53.971Z,21.60
2019-04-25T08:50:54.732Z,21.80
2019-04-25T08:52:48.223Z,21.90
2019-04-25T08:54:47.712Z,21.90
2019-04-25T08:56:41.892Z,21.90
2019-04-25T08:59:03.664Z,21.90
2019-04-25T09:01:06.691Z,21.80
2019-04-25T09:03:05.984Z,22.10
2019-04-25T09:05:18.602Z,22.00
2019-04-25T09:07:13.474Z,21.90
2019-04-25T09:09:07.942Z,22.10
2019-04-25T09:11:01.342Z,22.10
2019-04-25T09:12:54.216Z,22.40
2019-04-25T09:14:46.865Z,22.50
2019-04-25T09:16:40.257Z,22.50
2019-04-25T09:18:35.741Z,22.60
2019-04-25T09:20:28.307Z,22.80
2019-04-25T09:22:21.345Z,22.80
2019-04-25T09:24:13.697Z,22.90
2019-04-25T09:26:06.524Z,23.10
2019-04-25T09:27:58.938Z,23.10
2019-04-25T09:29:54.056Z,23.30
2019-04-25T09:31:46.899Z,23.10
2019-04-25T09:33:41.196Z,22.90
2019-04-25T09:35:36.107Z,23.10
2019-04-25T09:37:29.309Z,23.10
2019-04-25T09:39:24.312Z,23.10
2019-04-25T09:41:17.663Z,23.20
2019-04-25T09:43:09.948Z,23.30
2019-04-25T09:45:10.200Z,23.50
2019-04-25T09:47:03.777Z,23.30
2019-04-25T09:49:10.326Z,23.00
2019-04-25T09:51:16.989Z,23.20
2019-04-25T09:53:21.032Z,23.10
2019-04-25T09:55:13.332Z,23.20
2019-04-25T09:57:25.153Z,23.30
2019-04-25T09:59:27.367Z,23.30
2019-04-25T10:01:16.261Z,23.30
2019-04-25T10:03:10.362Z,23.90
2019-04-25T10:05:04.045Z,24.20
2019-04-25T10:06:57.137Z,24.40
2019-04-25T10:08:50.492Z,24.40
2019-04-25T10:10:44.570Z,24.50
2019-04-25T10:12:38.759Z,24.50
2019-04-25T10:15:04.577Z,24.90
2019-04-25T10:16:58.148Z,25.00
2019-04-25T10:18:51.080Z,25.10
2019-04-25T10:20:45.156Z,25.30
2019-04-25T10:22:40.329Z,25.40
2019-04-25T10:24:33.944Z,25.10
2019-04-25T10:26:27.133Z,25.20
2019-04-25T10:28:20.432Z,25.60
2019-04-25T10:30:19.850Z,26.00
2019-04-25T10:32:11.229Z,26.10
2019-04-25T10:34:04.890Z,26.00
2019-04-25T10:35:59.511Z,26.10
2019-04-25T10:37:53.797Z,26.30
2019-04-25T10:39:48.918Z,26.50
2019-04-25T10:41:44.492Z,26.70
2019-04-25T10:43:38.046Z,26.20
2019-04-25T10:45:31.492Z,25.90
2019-04-25T10:47:23.820Z,26.00
2019-04-25T10:49:16.910Z,26.00
2019-04-25T10:51:10.341Z,26.30
2019-04-25T10:53:04.026Z,26.80
2019-04-25T10:54:57.647Z,26.60
2019-04-25T10:56:52.021Z,26.10
2019-04-25T10:58:46.665Z,26.00
2019-04-25T11:00:42.339Z,26.20
2019-04-25T11:02:35.584Z,26.00
2019-04-25T11:04:30.278Z,25.80
2019-04-25T11:06:25.376Z,25.80
2019-04-25T11:08:18.759Z,26.00
2019-04-25T11:10:13.966Z,26.30
2019-04-25T11:12:12.665Z,26.80
2019-04-25T11:14:07.483Z,27.30
2019-04-25T11:16:05.738Z,27.50
2019-04-25T11:17:58.818Z,27.50
2019-04-25T11:19:51.194Z,27.50
2019-04-25T11:21:45.308Z,27.40
2019-04-25T11:23:38.857Z,27.20
2019-04-25T11:25:31.717Z,27.40
2019-04-25T11:27:24.770Z,27.70
2019-04-25T11:29:18.602Z,27.60
2019-04-25T11:31:14.278Z,27.50
2019-04-25T11:33:09.289Z,27.20
2019-04-25T11:35:03.581Z,27.20
2019-04-25T11:36:58.812Z,27.20
2019-04-25T11:38:56.372Z,26.90
2019-04-25T11:40:51.506Z,27.00
2019-04-25T11:42:46.231Z,27.10
2019-04-25T11:44:40.452Z,27.10
2019-04-25T11:46:33.979Z,27.30
2019-04-25T11:48:27.114Z,27.20
2019-04-25T11:50:23.366Z,27.10
2019-04-25T11:52:26.927Z,27.00
2019-04-25T11:54:10.593Z,27.00
2019-04-25T11:56:03.759Z,27.10
2019-04-25T11:57:57.592Z,27.40
2019-04-25T11:59:50.616Z,27.30
2019-04-25T12:01:46.737Z,26.90
2019-04-25T12:03:40.110Z,27.40
2019-04-25T12:05:34.285Z,27.60
2019-04-25T12:07:27.731Z,28.10
2019-04-25T12:09:21.272Z,28.60
2019-04-25T12:11:14.763Z,28.30
2019-04-25T12:13:08.289Z,28.60
2019-04-25T12:15:01.341Z,28.80
2019-04-25T12:16:56.284Z,29.10
2019-04-25T12:18:50.642Z,29.40
2019-04-25T12:20:46.238Z,29.30
2019-04-25T12:22:39.424Z,28.70
2019-04-25T12:24:33.512Z,28.60
2019-04-25T12:26:26.874Z,28.90
2019-04-25T12:28:23.508Z,28.90
2019-04-25T12:30:17.381Z,28.80
2019-04-25T12:32:11.071Z,28.60
2019-04-25T12:34:04.410Z,28.30
2019-04-25T12:35:58.201Z,27.40
2019-04-25T12:37:53.620Z,27.20
2019-04-25T12:39:47.097Z,26.20
2019-04-25T12:41:41.005Z,26.00
2019-04-25T12:43:36.076Z,25.50
2019-04-25T12:45:43.414Z,26.00
2019-04-25T12:47:42.255Z,26.90
2019-04-25T12:49:35.442Z,27.50
2019-04-25T12:51:29.141Z,27.60
2019-04-25T12:53:23.592Z,28.30
2019-04-25T12:55:17.744Z,28.60
2019-04-25T12:57:14.088Z,28.30
2019-04-25T12:59:07.813Z,28.00
2019-04-25T13:01:01.846Z,27.70
2019-04-25T13:02:56.514Z,27.60
2019-04-25T13:04:50.490Z,27.70
2019-04-25T13:06:44.014Z,27.50
2019-04-25T13:08:37.254Z,27.90
2019-04-25T13:10:30.343Z,28.60
2019-04-25T13:12:24.075Z,28.70
2019-04-25T13:14:17.562Z,28.40
2019-04-25T13:16:11.028Z,28.20
2019-04-25T13:18:03.530Z,27.30
2019-04-25T13:19:57.149Z,27.10
2019-04-25T13:21:50.592Z,26.90
2019-04-25T13:23:44.339Z,26.80
2019-04-25T13:25:37.590Z,26.60
2019-04-25T13:27:36.233Z,26.30
2019-04-25T13:29:30.886Z,26.30
2019-04-25T13:31:31.310Z,26.50
2019-04-25T13:33:26.011Z,26.10
2019-04-25T13:35:20.959Z,26.30
2019-04-25T13:37:14.194Z,26.10
2019-04-25T13:39:09.851Z,25.90
2019-04-25T13:41:04.904Z,25.90
2019-04-25T13:42:58.289Z,25.60
2019-04-25T13:44:50.480Z,25.20
2019-04-25T13:46:43.388Z,25.10
2019-04-25T13:48:36.744Z,25.00
2019-04-25T13:50:29.692Z,25.10
2019-04-25T13:52:23.872Z,24.80
2019-04-25T13:54:17.842Z,24.80
2019-04-25T13:56:13.340Z,24.70
2019-04-25T13:58:06.755Z,24.70
2019-04-25T13:59:59.611Z,24.70
2019-04-25T14:01:57.449Z,24.70
2019-04-25T14:03:55.979Z,24.70
2019-04-25T14:05:49.226Z,24.70
2019-04-25T14:07:41.553Z,24.50
2019-04-25T14:09:34.833Z,24.40
2019-04-25T14:11:27.975Z,24.50
2019-04-25T14:13:22.204Z,24.50
2019-04-25T14:15:18.540Z,24.40
2019-04-25T14:17:23.097Z,24.40
2019-04-25T14:19:27.313Z,24.40
2019-04-25T14:21:22.132Z,24.40
2019-04-25T14:23:16.201Z,24.40
2019-04-25T14:25:09.743Z,24.50
2019-04-25T14:27:03.648Z,24.30
2019-04-25T14:28:57.201Z,24.10
2019-04-25T14:30:50.596Z,24.20
2019-04-25T14:32:43.646Z,24.20
2019-04-25T14:34:36.459Z,24.30
2019-04-25T14:36:30.231Z,24.40
2019-04-25T14:38:25.263Z,24.30
2019-04-25T14:40:19.147Z,24.50
2019-04-25T14:42:12.447Z,24.50
2019-04-25T14:44:05.687Z,24.50
2019-04-25T14:45:59.472Z,24.50
2019-04-25T14:47:52.581Z,24.20
2019-04-25T14:49:45.496Z,24.00
2019-04-25T14:51:40.297Z,24.00
2019-04-25T14:53:34.027Z,24.10
2019-04-25T14:55:38.960Z,24.00
2019-04-25T14:57:32.856Z,24.00
2019-04-25T14:59:26.479Z,23.90
2019-04-25T15:01:22.648Z,23.90
2019-04-25T15:03:16.329Z,23.80
2019-04-25T15:05:09.677Z,24.00
2019-04-25T15:07:01.942Z,24.10
2019-04-25T15:08:54.880Z,23.90
2019-04-25T15:10:48.527Z,23.90
2019-04-25T15:12:41.901Z,23.90
2019-04-25T15:14:35.569Z,24.00
2019-04-25T15:16:29.059Z,24.30
2019-04-25T15:18:23.490Z,24.90
2019-04-25T15:20:17.223Z,26.10
2019-04-25T15:22:09.514Z,26.90
2019-04-25T15:24:02.989Z,27.00
2019-04-25T15:25:55.156Z,26.70
2019-04-25T15:27:47.777Z,26.20
2019-04-25T15:29:40.926Z,26.10
2019-04-25T15:31:33.893Z,25.40
2019-04-25T15:33:26.453Z,25.60
2019-04-25T15:35:21.391Z,26.30
2019-04-25T15:37:31.208Z,27.10
2019-04-25T15:39:43.718Z,27.60
2019-04-25T15:41:41.796Z,27.70
2019-04-25T15:43:36.880Z,28.30
2019-04-25T15:45:34.348Z,29.80
2019-04-25T15:47:29.827Z,29.90
2019-04-25T15:49:23.244Z,29.10
2019-04-25T15:51:16.448Z,28.30
2019-04-25T15:53:09.898Z,28.10
2019-04-25T15:55:07.497Z,28.30
2019-04-25T15:56:58.911Z,27.90
2019-04-25T15:58:52.176Z,27.20
2019-04-25T16:00:44.440Z,27.20
2019-04-25T16:02:37.530Z,26.70
2019-04-25T16:04:30.906Z,25.90
2019-04-25T16:06:24.308Z,25.50
2019-04-25T16:08:17.292Z,25.70
2019-04-25T16:10:10.927Z,26.20
2019-04-25T16:12:05.090Z,26.40
2019-04-25T16:13:58.406Z,27.10
2019-04-25T16:15:52.169Z,27.50
2019-04-25T16:17:45.448Z,27.70
2019-04-25T16:19:39.005Z,27.70
2019-04-25T16:21:32.050Z,27.50
2019-04-25T16:23:25.445Z,26.70
2019-04-25T16:25:19.296Z,26.20
2019-04-25T16:27:14.153Z,25.90
2019-04-25T16:29:07.188Z,25.60
2019-04-25T16:31:00.301Z,25.30
2019-04-25T16:32:53.605Z,25.00
2019-04-25T16:34:46.782Z,24.60
2019-04-25T16:36:40.197Z,24.30
2019-04-25T16:38:33.360Z,24.20
2019-04-25T16:40:27.533Z,24.10
2019-04-25T16:42:21.886Z,24.10
2019-04-25T16:44:22.043Z,23.90
2019-04-25T16:46:15.510Z,23.90
2019-04-25T16:48:09.025Z,24.00
2019-04-25T16:50:02.079Z,23.90
2019-04-25T16:51:56.436Z,23.80
2019-04-25T16:53:49.506Z,23.80
2019-04-25T16:55:42.519Z,23.60
2019-04-25T16:57:35.219Z,23.50
2019-04-25T16:59:29.470Z,23.50
2019-04-25T17:01:23.054Z,23.40
2019-04-25T17:02:58.151Z,23.50
2019-04-25T17:04:33.161Z,23.40
2019-04-25T17:06:26.948Z,23.30
2019-04-25T17:08:20.349Z,23.20
2019-04-25T17:10:14.677Z,23.20
2019-04-25T17:11:49.133Z,23.10
2019-04-25T17:13:24.802Z,23.20
2019-04-25T17:15:30.498Z,23.10
2019-04-25T17:17:34.395Z,23.00
2019-04-25T17:19:40.024Z,23.10
2019-04-25T17:21:33.000Z,22.90
2019-04-25T17:23:26.199Z,22.90
2019-04-25T17:25:19.429Z,22.90
2019-04-25T17:27:13.745Z,22.80
2019-04-25T17:29:08.386Z,22.80
2019-04-25T17:31:12.311Z,22.80
2019-04-25T17:33:16.149Z,22.80
2019-04-25T17:35:27.039Z,22.70
2019-04-25T17:37:24.816Z,22.60
2019-04-25T17:39:22.255Z,22.70
2019-04-25T17:41:15.808Z,22.60
2019-04-25T17:43:11.112Z,22.50
2019-04-25T17:45:02.000Z,22.50
2019-04-25T17:47:05.809Z,22.40
2019-04-25T17:48:51.575Z,22.30
2019-04-25T17:50:44.671Z,22.30
2019-04-25T17:52:38.315Z,22.30
2019-04-25T17:54:32.782Z,22.30
2019-04-25T17:56:26.438Z,22.20
2019-04-25T17:58:19.920Z,22.20
2019-04-25T18:00:27.974Z,22.10
2019-04-25T18:02:20.782Z,22.10
2019-04-25T18:04:13.780Z,22.00
2019-04-25T18:05:48.448Z,22.00
2019-04-25T18:07:22.978Z,21.90
2019-04-25T18:09:16.125Z,22.00
2019-04-25T18:11:10.071Z,22.00
2019-04-25T18:13:04.247Z,21.80
2019-04-25T18:14:58.856Z,21.80
2019-04-25T18:16:51.963Z,21.80
2019-04-25T18:18:52.580Z,21.70
2019-04-25T18:20:46.534Z,21.70
2019-04-25T18:22:47.313Z,21.60
2019-04-25T18:24:58.575Z,21.50
2019-04-25T18:26:56.361Z,21.50
2019-04-25T18:28:51.229Z,21.50
2019-04-25T18:30:52.752Z,21.40
2019-04-25T18:32:47.230Z,21.50
2019-04-25T18:34:42.273Z,21.50
2019-04-25T18:36:53.488Z,21.40
2019-04-25T18:39:06.660Z,21.30
2019-04-25T18:41:06.648Z,21.30
2019-04-25T18:43:01.773Z,21.30
2019-04-25T18:44:55.072Z,21.30
2019-04-25T18:46:47.783Z,21.30
2019-04-25T18:48:40.977Z,21.20
2019-04-25T18:50:34.266Z,21.10
2019-04-25T18:52:31.853Z,21.00
2019-04-25T18:54:43.245Z,21.00
2019-04-25T18:56:53.251Z,20.90
2019-04-25T18:59:06.329Z,21.00
2019-04-25T19:01:19.408Z,21.00
2019-04-25T19:03:30.200Z,21.00
2019-04-25T19:05:27.870Z,20.90
2019-04-25T19:07:22.817Z,21.00
2019-04-25T19:09:15.963Z,20.90
2019-04-25T19:11:09.385Z,20.90
2019-04-25T19:13:12.544Z,20.80
2019-04-25T19:14:57.443Z,20.90
2019-04-25T19:16:49.827Z,20.80
2019-04-25T19:18:45.382Z,20.80
2019-04-25T19:20:39.014Z,20.70
2019-04-25T19:22:33.559Z,20.70
2019-04-25T19:24:26.604Z,20.60
2019-04-25T19:26:20.044Z,20.70
2019-04-25T19:28:13.193Z,20.70
2019-04-25T19:30:09.509Z,20.60
2019-04-25T19:32:02.563Z,20.70
2019-04-25T19:33:55.894Z,20.60
2019-04-25T19:35:49.395Z,20.60
2019-04-25T19:37:42.241Z,20.50
2019-04-25T19:39:37.389Z,20.40
2019-04-25T19:41:35.236Z,20.40
2019-04-25T19:43:29.732Z,20.40
2019-04-25T19:45:23.041Z,20.50
2019-04-25T19:47:16.469Z,20.50
2019-04-25T19:49:09.615Z,20.40
2019-04-25T19:51:01.831Z,20.40
2019-04-25T19:52:55.172Z,20.40
2019-04-25T19:54:49.480Z,20.40
2019-04-25T19:56:43.859Z,20.40
2019-04-25T19:58:37.308Z,20.30
2019-04-25T20:00:31.116Z,20.30
2019-04-25T20:02:28.954Z,20.30
2019-04-25T20:04:23.857Z,20.30
2019-04-25T20:06:18.679Z,20.30
2019-04-25T20:08:16.124Z,20.20
2019-04-25T20:10:13.675Z,20.10
2019-04-25T20:12:07.323Z,20.10
2019-04-25T20:14:00.651Z,20.10
2019-04-25T20:15:54.082Z,20.10
2019-04-25T20:17:47.716Z,20.10
2019-04-25T20:19:41.009Z,20.10
2019-04-25T20:21:33.724Z,20.10
2019-04-25T20:23:26.638Z,20.10
2019-04-25T20:25:20.110Z,20.20
2019-04-25T20:27:13.490Z,20.10
2019-04-25T20:29:07.072Z,20.10
2019-04-25T20:30:59.460Z,20.00
2019-04-25T20:32:53.521Z,20.00
2019-04-25T20:34:47.329Z,20.00
2019-04-25T20:36:40.776Z,20.00
2019-04-25T20:38:33.830Z,19.90
2019-04-25T20:40:26.779Z,20.00
2019-04-25T20:42:20.079Z,19.90
2019-04-25T20:44:13.567Z,19.90
2019-04-25T20:46:06.299Z,19.90
2019-04-25T20:47:58.996Z,19.90
2019-04-25T20:49:52.965Z,19.90
2019-04-25T20:51:47.157Z,19.80
2019-04-25T20:53:40.367Z,19.80
2019-04-25T20:55:33.485Z,19.90
2019-04-25T20:57:26.890Z,19.80
2019-04-25T20:59:19.323Z,19.70
2019-04-25T21:01:12.144Z,19.70
2019-04-25T21:03:05.448Z,19.70
2019-04-25T21:04:59.026Z,19.70
2019-04-25T21:06:52.798Z,19.60
2019-04-25T21:08:46.143Z,19.60
2019-04-25T21:10:38.595Z,19.60
2019-04-25T21:12:31.759Z,19.60
2019-04-25T21:14:28.754Z,19.60
2019-04-25T21:16:39.635Z,19.50
2019-04-25T21:18:34.460Z,19.60
2019-04-25T21:20:27.735Z,19.50
2019-04-25T21:22:21.167Z,19.40
2019-04-25T21:24:13.968Z,19.40
2019-04-25T21:26:07.300Z,19.30
2019-04-25T21:28:00.875Z,19.40
2019-04-25T21:29:54.097Z,19.20
2019-04-25T21:31:47.389Z,19.30
2019-04-25T21:33:40.868Z,19.20
2019-04-25T21:35:33.160Z,19.10
2019-04-25T21:37:26.325Z,19.00
2019-04-25T21:39:30.325Z,18.90
2019-04-25T21:41:40.784Z,18.80
2019-04-25T21:43:35.892Z,18.70
2019-04-25T21:45:33.412Z,18.70
2019-04-25T21:47:26.533Z,18.70
2019-04-25T21:49:19.927Z,18.80
2019-04-25T21:51:30.344Z,18.80
2019-04-25T21:53:23.981Z,18.70
2019-04-25T21:55:17.490Z,18.60
2019-04-25T21:57:11.159Z,18.70
2019-04-25T21:59:04.935Z,18.80
2019-04-25T22:01:02.678Z,18.90
2019-04-25T22:02:57.918Z,19.00
2019-04-25T22:04:51.789Z,19.00
2019-04-25T22:06:45.430Z,19.00
2019-04-25T22:08:37.726Z,19.00
2019-04-25T22:10:30.799Z,19.10
2019-04-25T22:12:23.205Z,19.00
2019-04-25T22:14:16.924Z,19.00
2019-04-25T22:16:11.044Z,18.90
2019-04-25T22:18:04.469Z,18.80
2019-04-25T22:19:57.899Z,18.70
2019-04-25T22:21:51.659Z,18.60
2019-04-25T22:23:45.077Z,18.70
2019-04-25T22:25:38.127Z,18.60
2019-04-25T22:27:33.156Z,18.50
2019-04-25T22:29:27.490Z,18.50
2019-04-25T22:31:27.961Z,18.60
2019-04-25T22:33:39.164Z,18.60
2019-04-25T22:35:39.892Z,18.50
2019-04-25T22:37:33.495Z,18.50
2019-04-25T22:39:26.962Z,18.40
2019-04-25T22:41:20.311Z,18.40
2019-04-25T22:43:14.441Z,18.40
2019-04-25T22:45:08.059Z,18.40
2019-04-25T22:47:02.239Z,18.40
2019-04-25T22:48:56.027Z,18.40
2019-04-25T22:50:48.369Z,18.30
2019-04-25T22:52:41.385Z,18.30
2019-04-25T22:54:34.438Z,18.30
2019-04-25T22:56:26.776Z,18.30
2019-04-25T22:58:19.817Z,18.20
2019-04-25T23:00:26.836Z,18.30
2019-04-25T23:02:21.966Z,18.20
2019-04-25T23:04:33.282Z,18.00
2019-04-25T23:06:26.555Z,17.90
2019-04-25T23:08:19.687Z,17.60
2019-04-25T23:10:12.650Z,17.50
2019-04-25T23:12:06.652Z,17.40
2019-04-25T23:13:59.932Z,17.50
2019-04-25T23:15:54.117Z,17.30
2019-04-25T23:17:47.859Z,17.20
2019-04-25T23:19:41.600Z,17.10
2019-04-25T23:21:34.688Z,16.80
2019-04-25T23:23:27.112Z,16.80
2019-04-25T23:25:21.631Z,16.70
2019-04-25T23:27:32.464Z,16.90
2019-04-25T23:29:25.772Z,17.00
2019-04-25T23:31:20.408Z,17.10
2019-04-25T23:33:13.460Z,17.20
2019-04-25T23:35:22.467Z,17.30
2019-04-25T23:37:01.475Z,17.50
2019-04-25T23:38:54.847Z,17.50
2019-04-25T23:40:48.589Z,17.60
2019-04-25T23:42:42.360Z,17.60
2019-04-25T23:44:34.750Z,17.50
2019-04-25T23:46:27.446Z,17.50
2019-04-25T23:48:20.899Z,17.60
2019-04-25T23:50:13.355Z,17.70
2019-04-25T23:52:07.374Z,17.70
2019-04-25T23:54:01.771Z,17.60
2019-04-25T23:55:54.687Z,17.70
2019-04-25T23:57:47.724Z,17.70
2019-04-25T23:59:40.989Z,17.70
